Time;durP1;ratioP1;P1;durP2;ratioP2;P2;SDS_P1;SDS_P2;PMS_P1;PMS_P2;Temp;Humidity;BMP_temperature;BMP_pressure;BME280_temperature;BME280_humidity;BME280_pressure;Samples;Min_cycle;Max_cycle;Signal;HPM_P1;HPM_P2
2022/09/22 00:00:58;;;;;;;7.93;4.63;;;11.30;99.90;;;;;;4150485;28;20177;-91
2022/09/22 00:02:58;;;;;;;16.10;5.18;;;11.30;99.90;;;;;;4134171;28;20240;-91
2022/09/22 00:04:59;;;;;;;10.98;4.90;;;11.20;99.90;;;;;;4150202;28;20173;-91
2022/09/22 00:07:00;;;;;;;15.00;5.53;;;11.10;99.90;;;;;;4133962;28;20630;-91
2022/09/22 00:09:02;;;;;;;11.35;5.47;;;11.20;99.90;;;;;;4150043;28;20652;-91
2022/09/22 00:11:12;;;;;;;8.80;4.90;;;11.30;99.90;;;;;;4134401;28;20184;-91
2022/09/22 00:13:13;;;;;;;10.02;4.90;;;11.40;99.90;;;;;;4177773;28;20176;-90
2022/09/22 00:15:15;;;;;;;11.32;5.05;;;11.40;99.90;;;;;;4163624;28;20168;-92
2022/09/22 00:17:15;;;;;;;8.25;4.93;;;11.50;99.90;;;;;;4134183;28;20244;-90
2022/09/22 00:19:29;;;;;;;9.15;5.05;;;11.50;99.90;;;;;;4150090;28;20193;-90
2022/09/22 00:21:30;;;;;;;11.98;4.90;;;11.40;99.90;;;;;;4150054;28;20168;-91
2022/09/22 00:23:31;;;;;;;7.35;4.82;;;11.30;99.90;;;;;;4149818;28;20707;-91
2022/09/22 00:25:32;;;;;;;11.20;5.40;;;11.30;99.90;;;;;;4133703;28;20662;-91
2022/09/22 00:27:33;;;;;;;12.07;6.13;;;11.40;99.90;;;;;;4149980;28;20238;-91
2022/09/22 00:29:34;;;;;;;12.77;5.13;;;11.30;99.90;;;;;;4149523;28;20197;-92
2022/09/22 00:31:37;;;;;;;10.90;4.80;;;11.20;99.90;;;;;;4149795;28;20614;-91
2022/09/22 00:33:40;;;;;;;12.13;5.38;;;11.00;99.90;;;;;;4133719;28;20189;-92
2022/09/22 00:35:40;;;;;;;10.23;4.85;;;11.10;99.90;;;;;;4133460;28;20582;-92
2022/09/22 00:37:41;;;;;;;12.77;6.75;;;11.20;99.90;;;;;;4133552;28;20212;-92
2022/09/22 00:39:43;;;;;;;14.80;6.35;;;10.90;99.90;;;;;;4149327;28;20195;-92
2022/09/22 00:41:47;;;;;;;15.43;6.80;;;11.20;99.90;;;;;;4133061;28;20209;-92
2022/09/22 00:44:08;;;;;;;8.75;6.00;;;11.30;99.90;;;;;;4149695;28;20176;-92
2022/09/22 00:46:18;;;;;;;13.73;6.38;;;11.40;99.90;;;;;;4133091;28;20188;-92
2022/09/22 00:48:22;;;;;;;9.68;6.10;;;11.30;99.90;;;;;;4133228;28;20256;-90
2022/09/22 00:50:23;;;;;;;13.77;6.53;;;11.20;99.90;;;;;;4149321;28;20236;-91
2022/09/22 00:52:31;;;;;;;11.20;5.95;;;11.20;99.90;;;;;;4165917;28;20210;-92
2022/09/22 00:54:32;;;;;;;14.02;6.40;;;11.10;99.90;;;;;;4165571;28;20171;-91
2022/09/22 00:56:42;;;;;;;10.52;6.32;;;11.10;99.90;;;;;;4149267;28;20205;-91
2022/09/22 00:58:48;;;;;;;10.20;6.28;;;11.10;99.90;;;;;;4165434;28;20262;-91
2022/09/22 01:00:48;;;;;;;11.35;5.70;;;11.10;99.90;;;;;;4149316;28;20191;-91
2022/09/22 01:02:53;;;;;;;13.88;6.88;;;11.00;99.90;;;;;;4149095;28;20173;-91
2022/09/22 01:04:54;;;;;;;13.60;5.55;;;11.00;99.90;;;;;;4149431;28;20649;-92
2022/09/22 01:06:57;;;;;;;10.50;5.90;;;11.00;99.90;;;;;;4149330;28;20187;-92
2022/09/22 01:09:00;;;;;;;10.90;5.68;;;11.00;99.90;;;;;;4132672;28;20198;-91
2022/09/22 01:11:01;;;;;;;16.75;5.43;;;11.00;99.90;;;;;;4133066;28;20178;-91
2022/09/22 01:13:13;;;;;;;12.32;5.53;;;11.00;99.90;;;;;;4149034;28;20260;-91
2022/09/22 01:15:43;;;;;;;11.50;5.85;;;11.00;99.90;;;;;;4132846;28;20177;-91
2022/09/22 01:17:50;;;;;;;7.90;5.65;;;11.00;99.90;;;;;;4146212;28;20220;-91
2022/09/22 01:20:20;;;;;;;14.95;6.57;;;11.00;99.90;;;;;;4132985;28;20291;-91
2022/09/22 01:22:39;;;;;;;13.82;6.95;;;11.10;99.90;;;;;;4133041;28;20182;-92
2022/09/22 01:24:43;;;;;;;13.88;7.45;;;11.80;99.90;;;;;;4148970;28;20176;-91
2022/09/22 01:26:59;;;;;;;13.43;7.80;;;12.40;99.90;;;;;;4132751;28;20185;-91
2022/09/22 01:29:03;;;;;;;19.80;7.32;;;12.60;99.90;;;;;;4132640;28;20272;-91
2022/09/22 01:31:05;;;;;;;12.15;6.60;;;12.50;99.90;;;;;;4132705;28;20269;-92
2022/09/22 01:33:20;;;;;;;13.57;6.53;;;12.60;99.90;;;;;;4132604;28;20178;-91
2022/09/22 01:35:34;;;;;;;12.48;7.10;;;12.30;99.90;;;;;;4132744;28;20201;-92
2022/09/22 01:37:50;;;;;;;14.95;6.68;;;11.80;99.90;;;;;;4132710;28;20775;-92
2022/09/22 01:39:58;;;;;;;14.13;6.70;;;11.40;99.90;;;;;;4132432;28;20194;-91
2022/09/22 01:41:59;;;;;;;12.50;6.32;;;11.30;99.90;;;;;;4132611;28;20227;-91
2022/09/22 01:44:06;;;;;;;10.27;6.28;;;11.00;99.90;;;;;;4132496;28;20594;-91
2022/09/22 01:46:16;;;;;;;11.98;5.75;;;10.70;99.90;;;;;;4164995;28;20179;-91
2022/09/22 01:48:24;;;;;;;12.63;6.03;;;10.70;99.90;;;;;;4148869;28;20171;-93
2022/09/22 01:50:31;;;;;;;17.05;6.07;;;10.60;99.90;;;;;;4165124;28;20172;-92
2022/09/22 01:52:35;;;;;;;12.38;5.22;;;10.70;99.90;;;;;;4148855;28;20554;-91
2022/09/22 01:54:44;;;;;;;12.32;5.50;;;10.70;99.90;;;;;;4164981;28;20208;-92
2022/09/22 01:56:51;;;;;;;11.63;5.70;;;10.70;99.90;;;;;;4165901;28;20207;-91
2022/09/22 01:58:55;;;;;;;10.48;5.72;;;10.70;99.90;;;;;;4153176;28;20703;-90
2022/09/22 02:01:06;;;;;;;13.10;5.50;;;10.70;99.90;;;;;;4169332;28;20218;-92
2022/09/22 02:03:18;;;;;;;10.02;5.20;;;10.70;99.90;;;;;;4166169;28;20172;-91
2022/09/22 02:05:25;;;;;;;11.38;5.38;;;10.70;99.90;;;;;;4165813;28;20188;-92
2022/09/22 02:07:32;;;;;;;12.77;5.45;;;10.60;99.90;;;;;;4165135;28;20174;-92
2022/09/22 02:09:34;;;;;;;15.52;5.32;;;10.70;99.90;;;;;;4164290;28;20726;-91
2022/09/22 02:11:35;;;;;;;11.27;5.10;;;10.70;99.90;;;;;;4132168;28;20208;-91
2022/09/22 02:13:36;;;;;;;9.23;5.35;;;10.80;99.90;;;;;;4132439;28;20204;-92
2022/09/22 02:18:06;;;;;;;10.55;4.72;;;10.80;99.90;;;;;;4148399;28;20694;-91
2022/09/22 02:20:07;;;;;;;11.00;4.82;;;10.70;99.90;;;;;;4148345;28;20216;-92
2022/09/22 02:22:10;;;;;;;10.48;5.30;;;10.70;99.90;;;;;;4132326;28;20232;-91
2022/09/22 02:24:27;;;;;;;10.90;5.55;;;10.80;99.90;;;;;;4164568;28;20184;-91
2022/09/22 02:26:32;;;;;;;12.00;5.70;;;10.80;99.90;;;;;;4164598;28;20172;-91
2022/09/22 02:28:37;;;;;;;7.75;4.90;;;10.80;99.90;;;;;;4164548;28;20196;-91
2022/09/22 02:30:40;;;;;;;12.48;5.15;;;10.80;99.90;;;;;;4164995;28;20265;-92
2022/09/22 02:32:46;;;;;;;15.60;6.30;;;10.70;99.90;;;;;;4164979;28;20168;-92
2022/09/22 02:34:47;;;;;;;15.63;5.90;;;10.80;99.90;;;;;;4180617;28;20196;-91
2022/09/22 02:36:57;;;;;;;14.00;5.57;;;10.80;99.90;;;;;;4172213;28;20196;-91
2022/09/22 02:39:07;;;;;;;15.68;5.70;;;10.80;99.90;;;;;;4164665;28;20219;-92
2022/09/22 02:41:16;;;;;;;9.77;5.55;;;10.90;99.90;;;;;;4164808;28;20172;-91
2022/09/22 02:43:28;;;;;;;8.95;5.20;;;10.80;99.90;;;;;;4164774;28;20514;-92
2022/09/22 02:45:57;;;;;;;12.88;5.00;;;10.80;99.90;;;;;;4164694;28;20172;-92
2022/09/22 02:48:07;;;;;;;10.38;4.78;;;10.70;99.90;;;;;;4144403;28;20238;-92
2022/09/22 02:50:11;;;;;;;9.85;5.32;;;10.60;99.90;;;;;;4132225;28;20177;-92
2022/09/22 02:52:13;;;;;;;11.47;5.40;;;10.60;99.90;;;;;;4131735;28;20173;-92
2022/09/22 02:54:14;;;;;;;15.63;4.93;;;10.50;99.90;;;;;;4131941;28;20256;-92
2022/09/22 02:56:14;;;;;;;11.30;5.40;;;10.50;99.90;;;;;;4132041;28;20188;-91
2022/09/22 02:58:16;;;;;;;17.55;5.35;;;10.50;99.90;;;;;;4131911;28;20177;-92
2022/09/22 03:00:16;;;;;;;15.38;6.03;;;10.60;99.90;;;;;;4132308;28;20169;-92
2022/09/22 03:02:17;;;;;;;10.77;6.85;;;10.70;99.90;;;;;;4132590;28;20212;-91
2022/09/22 03:04:18;;;;;;;13.40;5.95;;;10.80;99.90;;;;;;4131884;28;20188;-91
2022/09/22 03:06:18;;;;;;;12.75;6.18;;;10.70;99.90;;;;;;4148223;28;20572;-92
2022/09/22 03:08:19;;;;;;;13.40;5.70;;;10.70;99.90;;;;;;4131879;28;20616;-91
2022/09/22 03:10:20;;;;;;;16.48;5.95;;;10.70;99.90;;;;;;4147964;28;20176;-92
2022/09/22 03:12:21;;;;;;;15.75;5.93;;;10.60;99.90;;;;;;4131825;28;20178;-92
2022/09/22 03:14:22;;;;;;;15.00;6.20;;;10.60;99.90;;;;;;4131802;28;20170;-91
2022/09/22 03:16:22;;;;;;;11.02;5.18;;;10.60;99.90;;;;;;4147960;28;20197;-91
2022/09/22 03:18:23;;;;;;;8.68;4.95;;;10.50;99.90;;;;;;4148013;28;20185;-92
2022/09/22 03:20:24;;;;;;;10.43;5.18;;;10.50;99.90;;;;;;4131734;28;20199;-92
2022/09/22 03:22:25;;;;;;;6.68;4.93;;;10.50;99.90;;;;;;4149457;28;20222;-91
2022/09/22 03:24:25;;;;;;;16.45;5.75;;;10.40;99.90;;;;;;4134778;28;20180;-92
2022/09/22 03:26:26;;;;;;;15.13;6.20;;;10.30;99.90;;;;;;4150754;28;20177;-92
2022/09/22 03:28:27;;;;;;;14.90;6.00;;;10.20;99.90;;;;;;4134592;28;20173;-91
2022/09/22 03:30:28;;;;;;;12.02;5.82;;;10.20;99.90;;;;;;4150613;28;20165;-92
2022/09/22 03:32:28;;;;;;;11.50;5.55;;;10.30;99.90;;;;;;4150470;28;20180;-91
2022/09/22 03:34:29;;;;;;;10.60;5.80;;;10.30;99.90;;;;;;4134704;28;20685;-92
2022/09/22 03:36:30;;;;;;;14.18;5.38;;;10.40;99.90;;;;;;4150459;28;20215;-91
2022/09/22 03:38:31;;;;;;;8.68;5.00;;;10.30;99.90;;;;;;4150494;28;20620;-91
2022/09/22 03:40:32;;;;;;;21.50;5.28;;;10.20;99.90;;;;;;4134222;28;20637;-92
2022/09/22 03:42:34;;;;;;;14.05;5.20;;;10.20;99.90;;;;;;4150518;28;20173;-92
2022/09/22 03:44:34;;;;;;;10.43;5.45;;;10.00;99.90;;;;;;4150654;28;20168;-92
2022/09/22 03:46:35;;;;;;;10.02;5.47;;;9.90;99.90;;;;;;4134385;28;20189;-91
2022/09/22 03:48:36;;;;;;;8.35;5.20;;;9.90;99.90;;;;;;4150334;28;20283;-92
2022/09/22 03:50:36;;;;;;;13.57;6.03;;;9.80;99.90;;;;;;4134228;28;20557;-92
2022/09/22 03:52:38;;;;;;;10.80;5.18;;;9.80;99.90;;;;;;4150367;28;20189;-92
2022/09/22 03:54:39;;;;;;;13.32;6.70;;;9.70;99.90;;;;;;4133996;28;20174;-91
2022/09/22 03:56:40;;;;;;;10.95;5.97;;;9.70;99.90;;;;;;4150112;28;20794;-92
2022/09/22 03:58:41;;;;;;;10.23;5.85;;;9.70;99.90;;;;;;4134016;28;20189;-92
2022/09/22 04:00:42;;;;;;;9.57;5.88;;;9.70;99.90;;;;;;4134099;28;20182;-92
2022/09/22 04:02:42;;;;;;;10.88;5.47;;;9.80;99.90;;;;;;4134361;28;20706;-92
2022/09/22 04:04:43;;;;;;;11.68;6.22;;;9.80;99.90;;;;;;4150241;28;20210;-91
2022/09/22 04:06:44;;;;;;;11.80;6.17;;;9.70;99.90;;;;;;4150352;28;20177;-91
2022/09/22 04:08:44;;;;;;;10.23;6.35;;;9.80;99.90;;;;;;4133720;28;20208;-93
2022/09/22 04:10:45;;;;;;;11.55;5.85;;;9.80;99.90;;;;;;4150272;28;20185;-93
2022/09/22 04:12:46;;;;;;;15.38;6.72;;;9.80;99.90;;;;;;4150141;28;20641;-92
2022/09/22 04:14:47;;;;;;;10.03;6.67;;;9.90;99.90;;;;;;4149993;28;20224;-92
2022/09/22 04:16:48;;;;;;;11.60;6.57;;;9.90;99.90;;;;;;4133690;28;20220;-92
2022/09/22 04:18:48;;;;;;;11.43;7.43;;;10.00;99.90;;;;;;4149768;28;20203;-92
2022/09/22 04:20:50;;;;;;;16.42;7.60;;;10.00;99.90;;;;;;4133888;28;20178;-92
2022/09/22 04:22:50;;;;;;;12.50;7.47;;;10.00;99.90;;;;;;4150156;28;20626;-92
2022/09/22 04:24:51;;;;;;;19.60;8.35;;;10.00;99.90;;;;;;4133522;28;20189;-91
2022/09/22 04:26:52;;;;;;;14.30;7.60;;;10.00;99.90;;;;;;4149782;28;20177;-91
2022/09/22 04:28:52;;;;;;;15.65;8.20;;;10.10;99.90;;;;;;4133251;28;20189;-91
2022/09/22 04:30:53;;;;;;;21.08;8.20;;;10.10;99.90;;;;;;4133336;28;20212;-91
2022/09/22 04:32:54;;;;;;;13.57;8.43;;;10.10;99.90;;;;;;4149279;28;20176;-92
2022/09/22 04:34:55;;;;;;;19.75;7.78;;;10.10;99.90;;;;;;4133570;28;20204;-92
2022/09/22 04:36:55;;;;;;;13.38;7.60;;;10.10;99.90;;;;;;4149693;28;20271;-91
2022/09/22 04:38:57;;;;;;;15.85;7.30;;;10.10;99.90;;;;;;4133408;28;20186;-91
2022/09/22 04:40:57;;;;;;;21.65;7.88;;;10.10;99.90;;;;;;4149472;28;20181;-91
2022/09/22 04:42:58;;;;;;;13.57;7.25;;;10.00;99.90;;;;;;4133310;28;20256;-91
2022/09/22 04:45:00;;;;;;;15.02;7.45;;;10.00;99.90;;;;;;4149603;28;20212;-91
2022/09/22 04:47:02;;;;;;;15.88;7.25;;;10.00;99.90;;;;;;4149855;28;20172;-91
2022/09/22 04:49:03;;;;;;;12.73;6.57;;;9.90;99.90;;;;;;4150120;28;20200;-93
2022/09/22 04:51:04;;;;;;;16.87;7.00;;;9.90;99.90;;;;;;4146966;28;20162;-91
2022/09/22 04:53:05;;;;;;;12.20;6.97;;;9.80;99.90;;;;;;4159660;28;20307;-91
2022/09/22 04:55:07;;;;;;;13.15;7.00;;;9.70;99.90;;;;;;4133679;28;20192;-92
2022/09/22 04:57:08;;;;;;;14.87;7.67;;;9.70;99.90;;;;;;4149608;28;20224;-91
2022/09/22 04:59:09;;;;;;;12.60;7.20;;;9.60;99.90;;;;;;4149195;28;20557;-91
2022/09/22 05:01:10;;;;;;;20.75;8.50;;;9.70;99.90;;;;;;4149328;28;20184;-91
2022/09/22 05:03:11;;;;;;;21.05;10.85;;;9.70;99.90;;;;;;4149436;28;20651;-91
2022/09/22 05:05:12;;;;;;;18.55;10.52;;;9.70;99.90;;;;;;4133134;28;20178;-90
2022/09/22 05:07:13;;;;;;;26.00;11.00;;;9.70;99.90;;;;;;4149187;28;20260;-92
2022/09/22 05:09:14;;;;;;;14.93;9.43;;;9.80;99.90;;;;;;4133100;28;20232;-91
2022/09/22 05:11:15;;;;;;;19.02;10.18;;;9.80;99.90;;;;;;4149398;28;20208;-90
2022/09/22 05:13:15;;;;;;;20.33;10.33;;;9.80;99.90;;;;;;4132395;28;20608;-92
2022/09/22 05:15:16;;;;;;;16.77;8.80;;;9.80;99.90;;;;;;4132607;28;20178;-90
2022/09/22 05:17:17;;;;;;;14.13;9.80;;;9.80;99.90;;;;;;4148652;28;20205;-91
2022/09/22 05:19:19;;;;;;;15.52;8.15;;;9.80;99.90;;;;;;4148162;28;20287;-92
2022/09/22 05:21:20;;;;;;;16.13;9.27;;;9.80;99.90;;;;;;4148631;28;20173;-91
2022/09/22 05:23:21;;;;;;;15.77;7.35;;;9.80;99.90;;;;;;4148384;28;20258;-90
2022/09/22 05:25:21;;;;;;;15.53;9.37;;;9.70;99.90;;;;;;4131862;28;20680;-91
2022/09/22 05:27:22;;;;;;;15.57;8.85;;;9.70;99.90;;;;;;4148049;28;20272;-92
2022/09/22 05:29:24;;;;;;;16.92;10.25;;;9.70;99.90;;;;;;4131869;28;20287;-91
2022/09/22 05:31:25;;;;;;;14.37;7.23;;;9.70;99.90;;;;;;4164489;28;20235;-91
2022/09/22 05:33:25;;;;;;;12.67;7.03;;;9.70;99.90;;;;;;4148302;28;20552;-90
2022/09/22 05:35:26;;;;;;;12.18;7.63;;;9.70;99.90;;;;;;4133986;28;20241;-91
2022/09/22 05:37:27;;;;;;;13.50;8.32;;;9.70;99.90;;;;;;4133478;28;20674;-91
2022/09/22 05:39:28;;;;;;;12.93;7.82;;;9.70;99.90;;;;;;4132266;28;20595;-90
2022/09/22 05:41:28;;;;;;;14.83;8.63;;;9.70;99.90;;;;;;4147962;28;20680;-91
2022/09/22 05:43:29;;;;;;;15.82;10.07;;;9.70;99.90;;;;;;4148203;28;20621;-92
2022/09/22 05:45:30;;;;;;;22.37;13.47;;;9.60;99.90;;;;;;4147418;28;20208;-92
2022/09/22 05:47:33;;;;;;;18.30;12.43;;;9.60;99.90;;;;;;4148286;28;20231;-91
2022/09/22 05:49:34;;;;;;;17.27;11.83;;;9.70;99.90;;;;;;4148148;28;20189;-91
2022/09/22 05:51:34;;;;;;;15.33;10.63;;;9.70;99.90;;;;;;4148037;28;20561;-92
2022/09/22 05:53:35;;;;;;;20.35;11.88;;;9.70;99.90;;;;;;4147885;28;20177;-92
2022/09/22 05:55:38;;;;;;;20.65;12.32;;;9.70;99.90;;;;;;4147636;28;20519;-92
2022/09/22 05:57:39;;;;;;;21.43;11.03;;;9.80;99.90;;;;;;4131852;28;20243;-93
2022/09/22 05:59:39;;;;;;;21.13;12.98;;;9.80;99.90;;;;;;4131840;28;20638;-91
2022/09/22 06:01:41;;;;;;;26.10;16.97;;;9.80;99.90;;;;;;4148561;28;20192;-92
2022/09/22 06:03:41;;;;;;;30.70;19.00;;;10.00;99.90;;;;;;4131930;28;20174;-92
2022/09/22 06:05:45;;;;;;;31.00;19.15;;;10.00;99.90;;;;;;4148037;28;20207;-92
2022/09/22 06:07:47;;;;;;;25.63;16.25;;;10.10;99.90;;;;;;4164560;28;20176;-92
2022/09/22 06:09:48;;;;;;;24.63;14.53;;;10.20;99.90;;;;;;4163965;28;20191;-91
2022/09/22 06:11:49;;;;;;;17.83;12.35;;;10.20;99.90;;;;;;4164507;28;20180;-91
2022/09/22 06:13:50;;;;;;;15.77;11.65;;;10.30;99.90;;;;;;4148237;28;20191;-91
2022/09/22 06:15:51;;;;;;;20.25;9.98;;;10.30;99.90;;;;;;4147851;28;20168;-92
2022/09/22 06:17:51;;;;;;;14.65;9.02;;;10.40;99.90;;;;;;4147717;28;20216;-92
2022/09/22 06:19:52;;;;;;;20.77;9.48;;;10.40;99.90;;;;;;4132014;28;20181;-91
2022/09/22 06:21:53;;;;;;;16.17;8.43;;;10.50;99.90;;;;;;4148151;28;20188;-90
2022/09/22 06:23:56;;;;;;;12.38;6.75;;;10.50;99.90;;;;;;4148261;28;20216;-92
2022/09/22 06:25:58;;;;;;;13.15;6.40;;;10.60;99.90;;;;;;4131791;28;20177;-92
2022/09/22 06:28:01;;;;;;;16.77;7.95;;;10.60;99.90;;;;;;4164362;28;20245;-90
2022/09/22 06:30:02;;;;;;;29.67;13.82;;;10.50;99.90;;;;;;4164207;28;20572;-91
2022/09/22 06:32:06;;;;;;;17.98;10.68;;;10.60;99.90;;;;;;4163966;28;20172;-90
2022/09/22 06:34:07;;;;;;;20.88;9.60;;;10.60;99.90;;;;;;4164241;28;20267;-90
2022/09/22 06:36:08;;;;;;;16.15;8.55;;;10.60;99.90;;;;;;4147590;28;20177;-92
2022/09/22 06:38:13;;;;;;;12.10;7.88;;;10.70;99.90;;;;;;4131247;28;20181;-91
2022/09/22 06:40:14;;;;;;;12.90;8.30;;;10.80;99.90;;;;;;4131074;28;20180;-92
2022/09/22 06:42:16;;;;;;;15.98;8.93;;;10.90;99.90;;;;;;4131456;28;20185;-92
2022/09/22 06:44:17;;;;;;;21.23;9.82;;;11.00;99.90;;;;;;4131315;28;20181;-91
2022/09/22 06:46:19;;;;;;;19.80;9.52;;;11.20;99.90;;;;;;4147811;28;20248;-92
2022/09/22 06:48:22;;;;;;;17.00;8.90;;;11.60;99.90;;;;;;4131800;28;20268;-92
2022/09/22 06:50:23;;;;;;;16.77;7.65;;;12.50;99.90;;;;;;4131569;28;20191;-93
2022/09/22 06:52:26;;;;;;;19.00;6.43;;;13.90;99.90;;;;;;4147486;28;20169;-91
2022/09/22 06:54:28;;;;;;;8.52;5.55;;;15.40;99.90;;;;;;4147671;28;20176;-94
2022/09/22 06:56:34;;;;;;;10.02;5.80;;;16.90;99.90;;;;;;4132967;28;20213;-93
2022/09/22 06:58:35;;;;;;;11.70;5.90;;;18.10;99.90;;;;;;4134364;28;20204;-93
2022/09/22 07:00:37;;;;;;;13.05;5.78;;;19.20;99.90;;;;;;4150828;28;20262;-94
2022/09/22 07:02:37;;;;;;;12.20;5.68;;;20.20;99.90;;;;;;4151198;28;20180;-93
2022/09/22 07:04:38;;;;;;;12.55;6.25;;;20.70;99.90;;;;;;4151114;28;20179;-90
2022/09/22 07:06:39;;;;;;;13.80;6.03;;;21.20;99.90;;;;;;4133912;28;20180;-93
2022/09/22 07:08:40;;;;;;;11.45;5.53;;;21.60;99.90;;;;;;4150535;28;20204;-93
2022/09/22 07:10:41;;;;;;;10.32;5.65;;;22.10;99.90;;;;;;4151123;28;20184;-92
2022/09/22 07:12:42;;;;;;;13.20;5.80;;;22.80;99.90;;;;;;4159257;28;20194;-92
2022/09/22 07:14:47;;;;;;;10.68;6.18;;;23.10;99.90;;;;;;4151498;28;20177;-94
2022/09/22 07:16:52;;;;;;;7.50;5.32;;;23.60;99.90;;;;;;4139495;28;20237;-93
2022/09/22 07:18:55;;;;;;;13.38;5.45;;;23.80;99.90;;;;;;4151056;28;20207;-94
2022/09/22 07:21:07;;;;;;;10.23;5.80;;;24.10;99.90;;;;;;4151204;28;20177;-93
2022/09/22 07:23:12;;;;;;;15.95;5.70;;;24.20;99.90;;;;;;4167193;28;20168;-93
2022/09/22 07:25:15;;;;;;;10.48;5.65;;;24.40;99.90;;;;;;4134830;28;20190;-93
2022/09/22 07:27:19;;;;;;;12.73;5.80;;;24.70;99.90;;;;;;4150872;28;20169;-94
2022/09/22 07:29:20;;;;;;;12.35;5.85;;;25.00;99.90;;;;;;4134308;28;20201;-93
2022/09/22 07:31:22;;;;;;;17.00;6.03;;;25.20;99.90;;;;;;4134603;28;20178;-94
2022/09/22 07:33:23;;;;;;;19.33;5.97;;;25.70;99.90;;;;;;4150657;28;20191;-94
2022/09/22 07:35:25;;;;;;;15.43;5.80;;;25.80;99.90;;;;;;4134184;28;20217;-94
2022/09/22 07:37:28;;;;;;;13.43;5.70;;;26.00;99.90;;;;;;4134241;28;20209;-94
2022/09/22 07:39:29;;;;;;;11.93;5.65;;;26.10;99.90;;;;;;4150327;28;20227;-93
2022/09/22 07:41:31;;;;;;;11.88;5.20;;;25.70;99.90;;;;;;4133762;28;20228;-94
2022/09/22 07:43:32;;;;;;;11.35;5.70;;;26.10;99.90;;;;;;4134255;28;20213;-94
2022/09/22 07:45:33;;;;;;;8.48;4.85;;;26.00;99.90;;;;;;4134290;28;20240;-94
2022/09/22 07:49:53;;;;;;;12.25;5.60;;;25.90;99.90;;;;;;4150019;28;20566;-94
2022/09/22 07:51:56;;;;;;;13.10;5.03;;;25.90;99.90;;;;;;4150026;28;20277;-93
2022/09/22 07:54:06;;;;;;;8.15;4.85;;;25.90;99.90;;;;;;4134060;28;20272;-93
2022/09/22 07:56:13;;;;;;;9.30;4.45;;;25.70;99.90;;;;;;4134174;28;20185;-93
2022/09/22 07:58:14;;;;;;;8.85;4.80;;;25.70;99.90;;;;;;4150649;28;20682;-94
2022/09/22 08:00:15;;;;;;;11.80;4.70;;;26.00;99.90;;;;;;4134198;28;20209;-92
2022/09/22 08:02:15;;;;;;;13.77;4.90;;;26.10;99.90;;;;;;4150268;28;20659;-94
2022/09/22 08:04:19;;;;;;;9.50;4.50;;;26.40;99.90;;;;;;4133794;28;20256;-90
2022/09/22 08:06:20;;;;;;;9.77;4.50;;;26.70;99.90;;;;;;4149843;28;20227;-92
2022/09/22 08:08:21;;;;;;;8.55;4.20;;;27.00;99.90;;;;;;4132975;28;20189;-92
2022/09/22 08:10:21;;;;;;;5.85;4.25;;;27.40;99.90;;;;;;4149872;28;20533;-92
2022/09/22 08:12:23;;;;;;;9.27;4.25;;;27.40;99.90;;;;;;4133371;28;20170;-93
2022/09/22 08:14:24;;;;;;;10.02;4.30;;;27.60;99.90;;;;;;4133833;28;20272;-92
2022/09/22 08:16:28;;;;;;;8.75;4.07;;;27.40;99.90;;;;;;4133789;28;20328;-91
2022/09/22 08:18:30;;;;;;;9.73;3.90;;;27.20;99.90;;;;;;4166078;28;20226;-91
2022/09/22 08:20:32;;;;;;;16.15;4.90;;;27.00;99.90;;;;;;4149790;28;20223;-91
2022/09/22 08:22:33;;;;;;;8.65;4.00;;;26.50;99.90;;;;;;4149916;28;20169;-92
2022/09/22 08:24:34;;;;;;;8.07;4.07;;;26.20;99.90;;;;;;4133289;28;20620;-92
2022/09/22 08:26:35;;;;;;;9.98;4.72;;;26.40;99.90;;;;;;4133304;28;20197;-92
2022/09/22 08:28:36;;;;;;;10.32;4.70;;;26.80;99.90;;;;;;4133658;28;20197;-92
2022/09/22 08:30:38;;;;;;;10.70;4.97;;;27.60;99.90;;;;;;4133953;28;20688;-93
2022/09/22 08:32:38;;;;;;;10.63;5.55;;;27.90;99.90;;;;;;4133432;28;20236;-94
2022/09/22 08:34:39;;;;;;;10.77;5.75;;;27.90;99.90;;;;;;4149718;28;20600;-92
2022/09/22 08:36:45;;;;;;;12.60;6.95;;;27.60;99.90;;;;;;4149783;28;20215;-93
2022/09/22 08:38:48;;;;;;;10.77;5.57;;;27.90;99.90;;;;;;4149526;28;20193;-92
2022/09/22 08:41:27;;;;;;;13.18;6.35;;;28.30;99.90;;;;;;4133574;28;20185;-94
2022/09/22 08:43:29;;;;;;;15.93;7.18;;;28.30;99.90;;;;;;4147914;28;20189;-91
2022/09/22 08:45:38;;;;;;;11.18;6.13;;;27.80;99.90;;;;;;4133097;28;20556;-92
2022/09/22 08:52:52;;;;;;;8.77;5.50;;;28.00;99.90;;;;;;4165788;28;20187;-92
2022/09/22 08:54:58;;;;;;;9.07;5.93;;;28.10;99.90;;;;;;4165454;28;20230;-93
2022/09/22 08:57:11;;;;;;;11.90;6.07;;;28.20;99.90;;;;;;4165659;28;20242;-91
2022/09/22 08:59:17;;;;;;;14.07;6.72;;;28.70;99.90;;;;;;4165654;28;20190;-94
2022/09/22 09:01:45;;;;;;;9.27;5.70;;;28.60;99.90;;;;;;4133180;28;20178;-93
2022/09/22 09:04:14;;;;;;;10.93;5.20;;;28.40;99.90;;;;;;4132842;28;20177;-92
2022/09/22 09:06:27;;;;;;;10.43;5.45;;;28.00;99.90;;;;;;4165418;28;20183;-92
2022/09/22 09:08:43;;;;;;;9.25;4.82;;;27.80;99.90;;;;;;4133252;28;20173;-92
2022/09/22 09:10:47;;;;;;;5.70;4.38;;;27.00;99.90;;;;;;4132811;28;20256;-94
2022/09/22 09:12:56;;;;;;;9.23;4.72;;;26.20;99.90;;;;;;4164927;28;20727;-91
2022/09/22 09:15:05;;;;;;;10.90;6.05;;;26.50;99.90;;;;;;4165710;28;20186;-91
2022/09/22 09:17:14;;;;;;;8.95;4.72;;;26.80;99.90;;;;;;4165571;28;20207;-92
2022/09/22 09:19:32;;;;;;;9.63;4.72;;;25.80;99.90;;;;;;4165436;28;20200;-93
2022/09/22 09:21:36;;;;;;;10.60;5.03;;;26.10;99.90;;;;;;4165350;28;20169;-92
2022/09/22 09:24:04;;;;;;;8.23;4.80;;;26.30;99.90;;;;;;4165051;28;20179;-93
2022/09/22 09:26:05;;;;;;;10.18;4.90;;;27.00;99.90;;;;;;4132248;28;20263;-94
2022/09/22 09:28:41;;;;;;;10.88;5.47;;;26.70;99.90;;;;;;4148951;28;20267;-93
2022/09/22 09:30:52;;;;;;;10.55;4.60;;;26.90;99.90;;;;;;4144813;28;20637;-93
2022/09/22 09:33:04;;;;;;;10.98;4.97;;;27.30;99.90;;;;;;4132627;28;20173;-92
2022/09/22 09:35:10;;;;;;;8.43;4.35;;;27.40;99.90;;;;;;4132695;28;20185;-93
2022/09/22 09:37:13;;;;;;;10.20;4.38;;;27.00;99.90;;;;;;4132148;28;20231;-94
2022/09/22 09:39:19;;;;;;;9.43;4.03;;;26.90;99.90;;;;;;4132120;28;20236;-93
2022/09/22 09:41:38;;;;;;;10.02;4.68;;;26.70;99.90;;;;;;4148735;28;20565;-92
2022/09/22 09:43:44;;;;;;;9.07;4.53;;;26.00;99.90;;;;;;4132334;28;20176;-92
2022/09/22 09:46:01;;;;;;;9.55;4.90;;;26.00;99.90;;;;;;4132363;28;20178;-94
2022/09/22 09:48:34;;;;;;;9.75;4.60;;;25.70;99.90;;;;;;4148443;28;20193;-92
2022/09/22 09:50:36;;;;;;;9.32;4.45;;;25.40;99.90;;;;;;4132032;28;20185;-92
2022/09/22 09:52:38;;;;;;;12.13;4.45;;;24.90;99.90;;;;;;4132304;28;20249;-92
2022/09/22 09:54:43;;;;;;;7.72;4.13;;;24.60;99.90;;;;;;4148536;28;20177;-92
2022/09/22 09:57:07;;;;;;;10.38;4.22;;;24.60;99.90;;;;;;4164643;28;20282;-92
2022/09/22 10:01:31;;;;;;;7.18;3.97;;;23.90;99.90;;;;;;4164579;28;20186;-92
2022/09/22 10:03:34;;;;;;;11.15;4.15;;;23.50;99.90;;;;;;4148184;28;20201;-92
2022/09/22 10:05:36;;;;;;;9.18;3.88;;;23.40;99.90;;;;;;4148189;28;20599;-93
2022/09/22 10:07:48;;;;;;;9.02;3.85;;;22.80;99.90;;;;;;4148535;28;20181;-93
2022/09/22 10:09:51;;;;;;;9.20;3.97;;;22.20;99.90;;;;;;4148311;28;20246;-94
2022/09/22 10:11:59;;;;;;;5.78;3.47;;;22.00;99.90;;;;;;4164992;28;20191;-94
2022/09/22 10:14:00;;;;;;;9.30;4.10;;;21.80;99.90;;;;;;4164743;28;20174;-95
2022/09/22 10:16:17;;;;;;;7.68;4.10;;;21.70;99.90;;;;;;4148808;28;20193;-95
2022/09/22 10:18:24;;;;;;;7.05;3.72;;;21.60;99.90;;;;;;4132061;28;20276;-93
2022/09/22 10:20:32;;;;;;;10.63;3.60;;;21.60;99.90;;;;;;4132046;28;20550;-92
2022/09/22 10:22:33;;;;;;;7.03;3.17;;;21.60;99.90;;;;;;4132137;28;20303;-92
2022/09/22 10:24:36;;;;;;;7.10;3.63;;;21.30;99.90;;;;;;4148065;28;20177;-92
2022/09/22 10:26:50;;;;;;;10.57;3.00;;;21.70;99.90;;;;;;4148133;28;20244;-92
2022/09/22 10:29:18;;;;;;;7.63;3.15;;;21.80;99.90;;;;;;4131688;28;20701;-92
2022/09/22 10:31:23;;;;;;;6.13;3.17;;;21.30;99.90;;;;;;4132330;28;20281;-93
2022/09/22 10:33:24;;;;;;;10.70;2.92;;;21.10;99.90;;;;;;4135383;28;20166;-92
2022/09/22 10:35:28;;;;;;;7.97;3.42;;;20.90;99.90;;;;;;4135624;28;20174;-94
2022/09/22 10:37:30;;;;;;;8.00;3.25;;;21.00;99.90;;;;;;4135878;28;20221;-91
2022/09/22 10:39:50;;;;;;;6.38;3.45;;;21.10;99.90;;;;;;4143511;28;20208;-93
2022/09/22 10:41:51;;;;;;;5.80;3.08;;;20.80;99.90;;;;;;4152627;28;20182;-93
2022/09/22 10:44:13;;;;;;;8.60;3.30;;;21.00;99.90;;;;;;4141192;28;20570;-92
2022/09/22 10:46:41;;;;;;;6.53;2.58;;;21.10;99.90;;;;;;4135665;28;20593;-92
2022/09/22 10:49:12;;;;;;;10.07;3.30;;;21.00;99.90;;;;;;4135568;28;20205;-92
2022/09/22 10:51:46;;;;;;;5.63;3.13;;;21.40;99.90;;;;;;4135012;28;20500;-91
2022/09/22 10:54:23;;;;;;;7.88;2.65;;;21.50;99.90;;;;;;4135121;28;20183;-92
2022/09/22 10:56:36;;;;;;;8.02;3.22;;;21.60;99.90;;;;;;4119886;28;20206;-92